sensor_id;sensor_type;location;lat;lon;timestamp;P1;durP1;ratioP1;P2;durP2;ratioP2
56730;SDS011;42613;47.424;8.560;2022-07-22T00:01:44;8.60;;;3.63;;
56730;SDS011;42613;47.424;8.560;2022-07-22T00:04:09;9.48;;;3.95;;
56730;SDS011;42613;47.424;8.560;2022-07-22T00:06:34;7.35;;;3.53;;
56730;SDS011;42613;47.424;8.560;2022-07-22T00:09:00;8.43;;;4.20;;
56730;SDS011;42613;47.424;8.560;2022-07-22T00:11:25;5.97;;;4.00;;
56730;SDS011;42613;47.424;8.560;2022-07-22T00:13:50;8.32;;;3.88;;
56730;SDS011;42613;47.424;8.560;2022-07-22T00:16:16;6.55;;;3.50;;
56730;SDS011;42613;47.424;8.560;2022-07-22T00:18:41;4.55;;;4.00;;
56730;SDS011;42613;47.424;8.560;2022-07-22T00:21:07;5.38;;;3.80;;
56730;SDS011;42613;47.424;8.560;2022-07-22T00:23:32;4.45;;;3.55;;
56730;SDS011;42613;47.424;8.560;2022-07-22T00:25:58;5.35;;;3.55;;
56730;SDS011;42613;47.424;8.560;2022-07-22T00:28:23;8.25;;;3.78;;
56730;SDS011;42613;47.424;8.560;2022-07-22T00:30:48;8.27;;;4.15;;
56730;SDS011;42613;47.424;8.560;2022-07-22T00:33:14;5.03;;;3.33;;
56730;SDS011;42613;47.424;8.560;2022-07-22T00:35:40;6.40;;;4.00;;
56730;SDS011;42613;47.424;8.560;2022-07-22T00:38:05;6.20;;;3.35;;
56730;SDS011;42613;47.424;8.560;2022-07-22T00:40:30;5.43;;;3.65;;
56730;SDS011;42613;47.424;8.560;2022-07-22T00:42:55;6.43;;;3.97;;
56730;SDS011;42613;47.424;8.560;2022-07-22T00:45:21;10.88;;;4.40;;
56730;SDS011;42613;47.424;8.560;2022-07-22T00:47:46;5.13;;;3.50;;
56730;SDS011;42613;47.424;8.560;2022-07-22T00:50:12;6.43;;;4.30;;
56730;SDS011;42613;47.424;8.560;2022-07-22T00:52:39;4.53;;;3.42;;
56730;SDS011;42613;47.424;8.560;2022-07-22T00:55:06;10.80;;;4.22;;
56730;SDS011;42613;47.424;8.560;2022-07-22T00:57:32;6.93;;;3.95;;
56730;SDS011;42613;47.424;8.560;2022-07-22T00:59:57;3.85;;;3.20;;
56730;SDS011;42613;47.424;8.560;2022-07-22T01:02:23;5.60;;;3.50;;
56730;SDS011;42613;47.424;8.560;2022-07-22T01:04:48;4.93;;;3.60;;
56730;SDS011;42613;47.424;8.560;2022-07-22T01:07:14;6.53;;;3.75;;
56730;SDS011;42613;47.424;8.560;2022-07-22T01:09:45;7.38;;;3.65;;
56730;SDS011;42613;47.424;8.560;2022-07-22T01:12:11;7.63;;;3.50;;
56730;SDS011;42613;47.424;8.560;2022-07-22T01:14:37;5.18;;;3.92;;
56730;SDS011;42613;47.424;8.560;2022-07-22T01:17:03;12.55;;;4.38;;
56730;SDS011;42613;47.424;8.560;2022-07-22T01:19:28;4.30;;;3.50;;
56730;SDS011;42613;47.424;8.560;2022-07-22T01:21:54;8.82;;;4.05;;
56730;SDS011;42613;47.424;8.560;2022-07-22T01:24:19;9.68;;;3.88;;
56730;SDS011;42613;47.424;8.560;2022-07-22T01:26:44;14.55;;;4.40;;
56730;SDS011;42613;47.424;8.560;2022-07-22T01:29:10;5.18;;;3.50;;
56730;SDS011;42613;47.424;8.560;2022-07-22T01:31:35;6.32;;;3.85;;
56730;SDS011;42613;47.424;8.560;2022-07-22T01:34:01;6.88;;;3.72;;
56730;SDS011;42613;47.424;8.560;2022-07-22T01:36:27;5.30;;;3.67;;
56730;SDS011;42613;47.424;8.560;2022-07-22T01:38:52;7.88;;;3.78;;
56730;SDS011;42613;47.424;8.560;2022-07-22T01:41:18;5.50;;;3.78;;
56730;SDS011;42613;47.424;8.560;2022-07-22T01:43:43;11.48;;;3.90;;
56730;SDS011;42613;47.424;8.560;2022-07-22T01:46:08;5.13;;;3.85;;
56730;SDS011;42613;47.424;8.560;2022-07-22T01:48:34;9.82;;;3.70;;
56730;SDS011;42613;47.424;8.560;2022-07-22T01:50:59;11.60;;;4.10;;
56730;SDS011;42613;47.424;8.560;2022-07-22T01:53:25;6.68;;;3.75;;
56730;SDS011;42613;47.424;8.560;2022-07-22T01:55:50;6.30;;;3.63;;
56730;SDS011;42613;47.424;8.560;2022-07-22T01:58:15;6.43;;;3.80;;
56730;SDS011;42613;47.424;8.560;2022-07-22T02:00:41;7.75;;;3.40;;
56730;SDS011;42613;47.424;8.560;2022-07-22T02:03:07;8.05;;;4.25;;
56730;SDS011;42613;47.424;8.560;2022-07-22T02:05:33;3.90;;;3.60;;
56730;SDS011;42613;47.424;8.560;2022-07-22T02:08:08;5.50;;;3.80;;
56730;SDS011;42613;47.424;8.560;2022-07-22T02:10:35;5.32;;;3.90;;
56730;SDS011;42613;47.424;8.560;2022-07-22T02:13:01;10.23;;;4.05;;
56730;SDS011;42613;47.424;8.560;2022-07-22T02:15:27;5.72;;;3.45;;
56730;SDS011;42613;47.424;8.560;2022-07-22T02:17:53;6.57;;;3.85;;
56730;SDS011;42613;47.424;8.560;2022-07-22T02:20:19;5.30;;;3.90;;
56730;SDS011;42613;47.424;8.560;2022-07-22T02:22:45;7.30;;;4.00;;
56730;SDS011;42613;47.424;8.560;2022-07-22T02:25:10;11.38;;;4.07;;
56730;SDS011;42613;47.424;8.560;2022-07-22T02:27:36;6.20;;;3.97;;
56730;SDS011;42613;47.424;8.560;2022-07-22T02:30:03;7.70;;;3.60;;
56730;SDS011;42613;47.424;8.560;2022-07-22T02:32:30;9.02;;;3.97;;
56730;SDS011;42613;47.424;8.560;2022-07-22T02:34:55;10.15;;;4.10;;
56730;SDS011;42613;47.424;8.560;2022-07-22T02:37:20;7.05;;;4.15;;
56730;SDS011;42613;47.424;8.560;2022-07-22T02:39:46;4.85;;;4.07;;
56730;SDS011;42613;47.424;8.560;2022-07-22T02:42:12;11.35;;;4.57;;
56730;SDS011;42613;47.424;8.560;2022-07-22T02:44:37;6.72;;;3.83;;
56730;SDS011;42613;47.424;8.560;2022-07-22T02:47:03;14.88;;;4.72;;
56730;SDS011;42613;47.424;8.560;2022-07-22T02:49:28;13.10;;;4.35;;
56730;SDS011;42613;47.424;8.560;2022-07-22T02:51:54;6.45;;;3.95;;
56730;SDS011;42613;47.424;8.560;2022-07-22T02:54:19;9.82;;;4.63;;
56730;SDS011;42613;47.424;8.560;2022-07-22T02:56:44;14.25;;;4.60;;
56730;SDS011;42613;47.424;8.560;2022-07-22T02:59:10;10.35;;;4.45;;
56730;SDS011;42613;47.424;8.560;2022-07-22T03:01:35;5.28;;;3.80;;
56730;SDS011;42613;47.424;8.560;2022-07-22T03:04:00;8.50;;;4.15;;
56730;SDS011;42613;47.424;8.560;2022-07-22T03:06:26;6.78;;;4.47;;
56730;SDS011;42613;47.424;8.560;2022-07-22T03:08:51;4.82;;;4.32;;
56730;SDS011;42613;47.424;8.560;2022-07-22T03:11:16;8.02;;;4.93;;
56730;SDS011;42613;47.424;8.560;2022-07-22T03:13:42;7.78;;;4.95;;
56730;SDS011;42613;47.424;8.560;2022-07-22T03:16:07;5.25;;;4.53;;
56730;SDS011;42613;47.424;8.560;2022-07-22T03:18:34;10.85;;;4.82;;
56730;SDS011;42613;47.424;8.560;2022-07-22T03:20:59;5.10;;;4.30;;
56730;SDS011;42613;47.424;8.560;2022-07-22T03:23:24;6.68;;;3.55;;
56730;SDS011;42613;47.424;8.560;2022-07-22T03:25:50;6.38;;;4.55;;
56730;SDS011;42613;47.424;8.560;2022-07-22T03:28:15;9.02;;;3.97;;
56730;SDS011;42613;47.424;8.560;2022-07-22T03:30:40;6.55;;;4.53;;
56730;SDS011;42613;47.424;8.560;2022-07-22T03:33:06;4.95;;;3.72;;
56730;SDS011;42613;47.424;8.560;2022-07-22T03:35:31;7.22;;;4.43;;
56730;SDS011;42613;47.424;8.560;2022-07-22T03:37:56;6.18;;;4.50;;
56730;SDS011;42613;47.424;8.560;2022-07-22T03:40:22;6.28;;;4.07;;
56730;SDS011;42613;47.424;8.560;2022-07-22T03:42:47;9.70;;;4.75;;
56730;SDS011;42613;47.424;8.560;2022-07-22T03:45:13;12.45;;;4.80;;
56730;SDS011;42613;47.424;8.560;2022-07-22T03:47:38;9.65;;;4.28;;
56730;SDS011;42613;47.424;8.560;2022-07-22T03:50:04;8.63;;;4.07;;
56730;SDS011;42613;47.424;8.560;2022-07-22T03:52:30;5.35;;;4.85;;
56730;SDS011;42613;47.424;8.560;2022-07-22T03:54:56;7.80;;;4.30;;
56730;SDS011;42613;47.424;8.560;2022-07-22T03:57:21;7.15;;;4.38;;
56730;SDS011;42613;47.424;8.560;2022-07-22T03:59:46;10.95;;;4.75;;
56730;SDS011;42613;47.424;8.560;2022-07-22T04:02:12;6.90;;;4.20;;
56730;SDS011;42613;47.424;8.560;2022-07-22T04:04:37;8.48;;;4.93;;
56730;SDS011;42613;47.424;8.560;2022-07-22T04:07:03;9.80;;;5.63;;
56730;SDS011;42613;47.424;8.560;2022-07-22T04:09:28;7.90;;;4.78;;
56730;SDS011;42613;47.424;8.560;2022-07-22T04:11:54;7.28;;;4.70;;
56730;SDS011;42613;47.424;8.560;2022-07-22T04:14:19;8.52;;;4.13;;
56730;SDS011;42613;47.424;8.560;2022-07-22T04:16:45;9.18;;;5.03;;
56730;SDS011;42613;47.424;8.560;2022-07-22T04:19:10;6.78;;;4.30;;
56730;SDS011;42613;47.424;8.560;2022-07-22T04:21:36;8.43;;;4.50;;
56730;SDS011;42613;47.424;8.560;2022-07-22T04:24:02;6.30;;;4.55;;
56730;SDS011;42613;47.424;8.560;2022-07-22T04:26:27;7.38;;;4.50;;
56730;SDS011;42613;47.424;8.560;2022-07-22T04:28:53;5.20;;;4.07;;
56730;SDS011;42613;47.424;8.560;2022-07-22T04:31:18;4.90;;;4.40;;
56730;SDS011;42613;47.424;8.560;2022-07-22T04:33:43;6.57;;;4.60;;
56730;SDS011;42613;47.424;8.560;2022-07-22T04:36:09;6.40;;;4.65;;
56730;SDS011;42613;47.424;8.560;2022-07-22T04:38:34;7.32;;;4.68;;
56730;SDS011;42613;47.424;8.560;2022-07-22T04:40:59;7.88;;;4.07;;
56730;SDS011;42613;47.424;8.560;2022-07-22T04:43:25;8.45;;;5.00;;
56730;SDS011;42613;47.424;8.560;2022-07-22T04:45:50;6.20;;;4.72;;
56730;SDS011;42613;47.424;8.560;2022-07-22T04:48:16;6.93;;;5.00;;
56730;SDS011;42613;47.424;8.560;2022-07-22T04:50:42;7.50;;;4.80;;
56730;SDS011;42613;47.424;8.560;2022-07-22T04:53:08;6.45;;;4.80;;
56730;SDS011;42613;47.424;8.560;2022-07-22T04:55:33;7.05;;;4.88;;
56730;SDS011;42613;47.424;8.560;2022-07-22T04:57:58;4.65;;;2.80;;
56730;SDS011;42613;47.424;8.560;2022-07-22T05:00:24;6.88;;;3.10;;
56730;SDS011;42613;47.424;8.560;2022-07-22T05:02:49;5.63;;;4.35;;
56730;SDS011;42613;47.424;8.560;2022-07-22T05:05:15;7.15;;;4.40;;
56730;SDS011;42613;47.424;8.560;2022-07-22T05:07:40;5.00;;;4.15;;
56730;SDS011;42613;47.424;8.560;2022-07-22T05:10:05;9.88;;;5.10;;
56730;SDS011;42613;47.424;8.560;2022-07-22T05:12:31;6.57;;;4.22;;
56730;SDS011;42613;47.424;8.560;2022-07-22T05:14:57;10.10;;;5.70;;
56730;SDS011;42613;47.424;8.560;2022-07-22T05:17:22;9.15;;;5.13;;
56730;SDS011;42613;47.424;8.560;2022-07-22T05:19:47;8.95;;;5.35;;
56730;SDS011;42613;47.424;8.560;2022-07-22T05:22:13;8.77;;;6.10;;
56730;SDS011;42613;47.424;8.560;2022-07-22T05:24:38;13.93;;;5.00;;
56730;SDS011;42613;47.424;8.560;2022-07-22T05:27:03;6.63;;;5.40;;
56730;SDS011;42613;47.424;8.560;2022-07-22T05:29:29;11.90;;;6.00;;
56730;SDS011;42613;47.424;8.560;2022-07-22T05:31:55;7.57;;;4.88;;
56730;SDS011;42613;47.424;8.560;2022-07-22T05:34:20;3.22;;;2.10;;
56730;SDS011;42613;47.424;8.560;2022-07-22T05:36:45;4.20;;;2.30;;
56730;SDS011;42613;47.424;8.560;2022-07-22T05:39:11;5.22;;;2.17;;
56730;SDS011;42613;47.424;8.560;2022-07-22T05:41:36;2.78;;;1.88;;
56730;SDS011;42613;47.424;8.560;2022-07-22T05:44:03;3.05;;;2.35;;
56730;SDS011;42613;47.424;8.560;2022-07-22T05:46:29;2.45;;;2.20;;
56730;SDS011;42613;47.424;8.560;2022-07-22T05:48:54;10.98;;;4.28;;
56730;SDS011;42613;47.424;8.560;2022-07-22T05:51:20;12.10;;;5.43;;
56730;SDS011;42613;47.424;8.560;2022-07-22T05:53:45;14.20;;;7.65;;
56730;SDS011;42613;47.424;8.560;2022-07-22T05:56:10;2.78;;;2.35;;
56730;SDS011;42613;47.424;8.560;2022-07-22T05:58:37;11.15;;;5.18;;
56730;SDS011;42613;47.424;8.560;2022-07-22T06:01:05;8.02;;;2.40;;
56730;SDS011;42613;47.424;8.560;2022-07-22T06:03:30;4.22;;;2.70;;
56730;SDS011;42613;47.424;8.560;2022-07-22T06:05:56;6.18;;;3.03;;
56730;SDS011;42613;47.424;8.560;2022-07-22T06:08:21;6.85;;;3.28;;
56730;SDS011;42613;47.424;8.560;2022-07-22T06:10:47;6.18;;;3.80;;
56730;SDS011;42613;47.424;8.560;2022-07-22T06:13:13;8.45;;;3.05;;
56730;SDS011;42613;47.424;8.560;2022-07-22T06:15:38;5.53;;;3.53;;
56730;SDS011;42613;47.424;8.560;2022-07-22T06:18:04;13.18;;;6.93;;
56730;SDS011;42613;47.424;8.560;2022-07-22T06:20:29;9.20;;;6.00;;
56730;SDS011;42613;47.424;8.560;2022-07-22T06:22:54;4.93;;;3.50;;
56730;SDS011;42613;47.424;8.560;2022-07-22T06:25:20;11.05;;;6.10;;
56730;SDS011;42613;47.424;8.560;2022-07-22T06:27:45;13.57;;;6.97;;
56730;SDS011;42613;47.424;8.560;2022-07-22T06:30:10;9.80;;;7.28;;
56730;SDS011;42613;47.424;8.560;2022-07-22T06:32:36;9.20;;;6.18;;
56730;SDS011;42613;47.424;8.560;2022-07-22T06:35:02;13.82;;;6.40;;
56730;SDS011;42613;47.424;8.560;2022-07-22T06:37:27;14.38;;;7.85;;
56730;SDS011;42613;47.424;8.560;2022-07-22T06:39:53;12.15;;;6.55;;
56730;SDS011;42613;47.424;8.560;2022-07-22T06:42:18;9.00;;;6.85;;
56730;SDS011;42613;47.424;8.560;2022-07-22T06:44:43;12.63;;;7.18;;
56730;SDS011;42613;47.424;8.560;2022-07-22T06:47:09;10.95;;;5.88;;
56730;SDS011;42613;47.424;8.560;2022-07-22T06:49:34;8.93;;;6.32;;
56730;SDS011;42613;47.424;8.560;2022-07-22T06:52:00;8.10;;;6.00;;
56730;SDS011;42613;47.424;8.560;2022-07-22T06:54:26;8.80;;;6.10;;
56730;SDS011;42613;47.424;8.560;2022-07-22T06:56:52;8.80;;;6.20;;
56730;SDS011;42613;47.424;8.560;2022-07-22T06:59:17;13.80;;;6.22;;
56730;SDS011;42613;47.424;8.560;2022-07-22T07:01:43;13.27;;;7.03;;
56730;SDS011;42613;47.424;8.560;2022-07-22T07:04:08;11.85;;;6.47;;
56730;SDS011;42613;47.424;8.560;2022-07-22T07:06:34;5.93;;;5.15;;
56730;SDS011;42613;47.424;8.560;2022-07-22T07:08:59;7.80;;;5.03;;
56730;SDS011;42613;47.424;8.560;2022-07-22T07:11:25;10.27;;;6.25;;
56730;SDS011;42613;47.424;8.560;2022-07-22T07:13:50;10.18;;;8.48;;
56730;SDS011;42613;47.424;8.560;2022-07-22T07:16:16;11.05;;;7.32;;
56730;SDS011;42613;47.424;8.560;2022-07-22T07:18:41;7.22;;;6.45;;
56730;SDS011;42613;47.424;8.560;2022-07-22T07:21:07;7.82;;;6.50;;
56730;SDS011;42613;47.424;8.560;2022-07-22T07:23:32;12.48;;;5.72;;
56730;SDS011;42613;47.424;8.560;2022-07-22T07:25:57;10.52;;;6.55;;
56730;SDS011;42613;47.424;8.560;2022-07-22T07:28:23;7.80;;;6.93;;
56730;SDS011;42613;47.424;8.560;2022-07-22T07:30:48;11.90;;;7.93;;
56730;SDS011;42613;47.424;8.560;2022-07-22T07:33:14;8.93;;;7.00;;
56730;SDS011;42613;47.424;8.560;2022-07-22T07:35:40;7.82;;;5.57;;
56730;SDS011;42613;47.424;8.560;2022-07-22T07:38:05;9.55;;;7.05;;
56730;SDS011;42613;47.424;8.560;2022-07-22T07:40:31;9.45;;;6.70;;
56730;SDS011;42613;47.424;8.560;2022-07-22T07:42:57;8.52;;;6.50;;
56730;SDS011;42613;47.424;8.560;2022-07-22T07:45:22;8.90;;;7.82;;
56730;SDS011;42613;47.424;8.560;2022-07-22T07:47:48;11.52;;;7.18;;
56730;SDS011;42613;47.424;8.560;2022-07-22T07:50:13;10.52;;;7.38;;
56730;SDS011;42613;47.424;8.560;2022-07-22T07:52:42;8.45;;;5.22;;
56730;SDS011;42613;47.424;8.560;2022-07-22T07:55:10;6.82;;;5.40;;
56730;SDS011;42613;47.424;8.560;2022-07-22T07:57:37;8.68;;;6.28;;
56730;SDS011;42613;47.424;8.560;2022-07-22T08:00:03;14.63;;;6.68;;
56730;SDS011;42613;47.424;8.560;2022-07-22T08:02:31;8.82;;;7.95;;
56730;SDS011;42613;47.424;8.560;2022-07-22T08:04:57;10.82;;;7.82;;
56730;SDS011;42613;47.424;8.560;2022-07-22T08:07:22;8.80;;;7.30;;
56730;SDS011;42613;47.424;8.560;2022-07-22T08:09:47;7.45;;;6.70;;
56730;SDS011;42613;47.424;8.560;2022-07-22T08:12:13;11.55;;;7.78;;
56730;SDS011;42613;47.424;8.560;2022-07-22T08:14:38;7.50;;;6.80;;
56730;SDS011;42613;47.424;8.560;2022-07-22T08:17:04;6.50;;;5.80;;
56730;SDS011;42613;47.424;8.560;2022-07-22T08:19:29;7.30;;;6.03;;
56730;SDS011;42613;47.424;8.560;2022-07-22T08:21:55;6.22;;;5.45;;
56730;SDS011;42613;47.424;8.560;2022-07-22T08:24:20;6.78;;;5.95;;
56730;SDS011;42613;47.424;8.560;2022-07-22T08:26:45;9.23;;;6.85;;
56730;SDS011;42613;47.424;8.560;2022-07-22T08:29:11;7.78;;;5.93;;
56730;SDS011;42613;47.424;8.560;2022-07-22T08:31:36;7.78;;;6.25;;
56730;SDS011;42613;47.424;8.560;2022-07-22T08:34:02;10.52;;;8.32;;
56730;SDS011;42613;47.424;8.560;2022-07-22T08:36:29;7.93;;;6.72;;
56730;SDS011;42613;47.424;8.560;2022-07-22T08:38:54;7.32;;;6.53;;
56730;SDS011;42613;47.424;8.560;2022-07-22T08:41:22;9.55;;;7.93;;
56730;SDS011;42613;47.424;8.560;2022-07-22T08:43:48;8.40;;;7.07;;
56730;SDS011;42613;47.424;8.560;2022-07-22T08:46:14;7.72;;;6.93;;
56730;SDS011;42613;47.424;8.560;2022-07-22T08:48:40;9.40;;;8.30;;
56730;SDS011;42613;47.424;8.560;2022-07-22T08:51:05;8.32;;;5.68;;
56730;SDS011;42613;47.424;8.560;2022-07-22T08:53:32;11.15;;;7.15;;
56730;SDS011;42613;47.424;8.560;2022-07-22T08:55:59;6.78;;;5.35;;
56730;SDS011;42613;47.424;8.560;2022-07-22T08:58:25;9.32;;;6.50;;
56730;SDS011;42613;47.424;8.560;2022-07-22T09:03:52;10.25;;;8.00;;
56730;SDS011;42613;47.424;8.560;2022-07-22T09:06:21;10.10;;;6.78;;
56730;SDS011;42613;47.424;8.560;2022-07-22T09:08:51;14.27;;;6.95;;
56730;SDS011;42613;47.424;8.560;2022-07-22T09:11:20;6.50;;;5.82;;
56730;SDS011;42613;47.424;8.560;2022-07-22T09:13:48;9.02;;;6.53;;
56730;SDS011;42613;47.424;8.560;2022-07-22T09:16:14;8.75;;;6.32;;
56730;SDS011;42613;47.424;8.560;2022-07-22T09:18:49;9.38;;;6.35;;
56730;SDS011;42613;47.424;8.560;2022-07-22T09:21:16;7.80;;;6.55;;
56730;SDS011;42613;47.424;8.560;2022-07-22T09:23:42;6.95;;;5.90;;
56730;SDS011;42613;47.424;8.560;2022-07-22T09:26:08;8.80;;;7.78;;
56730;SDS011;42613;47.424;8.560;2022-07-22T09:28:34;6.18;;;5.57;;
56730;SDS011;42613;47.424;8.560;2022-07-22T09:30:59;11.40;;;8.23;;
56730;SDS011;42613;47.424;8.560;2022-07-22T09:33:25;8.02;;;6.20;;
56730;SDS011;42613;47.424;8.560;2022-07-22T09:35:51;9.20;;;6.30;;
56730;SDS011;42613;47.424;8.560;2022-07-22T09:38:18;11.68;;;6.82;;
56730;SDS011;42613;47.424;8.560;2022-07-22T09:40:51;10.52;;;7.97;;
56730;SDS011;42613;47.424;8.560;2022-07-22T09:43:17;9.80;;;6.20;;
56730;SDS011;42613;47.424;8.560;2022-07-22T09:45:44;7.90;;;6.45;;
56730;SDS011;42613;47.424;8.560;2022-07-22T09:48:13;9.60;;;6.50;;
56730;SDS011;42613;47.424;8.560;2022-07-22T09:50:39;11.77;;;8.82;;
56730;SDS011;42613;47.424;8.560;2022-07-22T09:53:05;10.55;;;7.10;;
56730;SDS011;42613;47.424;8.560;2022-07-22T09:55:30;10.65;;;7.25;;
56730;SDS011;42613;47.424;8.560;2022-07-22T09:57:57;8.65;;;6.53;;
56730;SDS011;42613;47.424;8.560;2022-07-22T10:00:26;10.05;;;6.00;;
56730;SDS011;42613;47.424;8.560;2022-07-22T10:05:23;10.50;;;8.05;;
56730;SDS011;42613;47.424;8.560;2022-07-22T10:07:51;9.60;;;6.60;;
56730;SDS011;42613;47.424;8.560;2022-07-22T10:10:18;8.13;;;6.10;;
56730;SDS011;42613;47.424;8.560;2022-07-22T10:12:45;6.95;;;5.80;;
56730;SDS011;42613;47.424;8.560;2022-07-22T10:15:14;10.20;;;7.03;;
56730;SDS011;42613;47.424;8.560;2022-07-22T10:17:43;9.27;;;6.20;;
56730;SDS011;42613;47.424;8.560;2022-07-22T10:20:13;8.68;;;6.25;;
56730;SDS011;42613;47.424;8.560;2022-07-22T10:25:08;10.43;;;7.00;;
56730;SDS011;42613;47.424;8.560;2022-07-22T10:27:44;10.00;;;6.70;;
56730;SDS011;42613;47.424;8.560;2022-07-22T10:30:15;7.88;;;5.65;;
56730;SDS011;42613;47.424;8.560;2022-07-22T10:32:43;10.13;;;6.82;;
56730;SDS011;42613;47.424;8.560;2022-07-22T10:47:57;7.85;;;7.05;;
56730;SDS011;42613;47.424;8.560;2022-07-22T10:53:07;9.07;;;8.05;;
56730;SDS011;42613;47.424;8.560;2022-07-22T10:55:34;7.03;;;5.90;;
56730;SDS011;42613;47.424;8.560;2022-07-22T10:58:29;7.63;;;6.43;;
56730;SDS011;42613;47.424;8.560;2022-07-22T11:01:01;8.40;;;6.05;;
56730;SDS011;42613;47.424;8.560;2022-07-22T11:03:29;6.88;;;5.70;;
56730;SDS011;42613;47.424;8.560;2022-07-22T11:05:55;10.45;;;7.30;;
56730;SDS011;42613;47.424;8.560;2022-07-22T11:08:21;10.55;;;8.43;;
56730;SDS011;42613;47.424;8.560;2022-07-22T11:10:48;9.35;;;7.28;;
56730;SDS011;42613;47.424;8.560;2022-07-22T11:13:30;13.88;;;8.02;;
56730;SDS011;42613;47.424;8.560;2022-07-22T11:16:18;7.15;;;4.78;;
56730;SDS011;42613;47.424;8.560;2022-07-22T11:18:49;9.53;;;6.30;;
56730;SDS011;42613;47.424;8.560;2022-07-22T11:21:21;6.65;;;6.05;;
56730;SDS011;42613;47.424;8.560;2022-07-22T11:23:49;9.90;;;5.65;;
56730;SDS011;42613;47.424;8.560;2022-07-22T11:26:17;7.65;;;6.28;;
56730;SDS011;42613;47.424;8.560;2022-07-22T11:28:48;6.32;;;4.97;;
56730;SDS011;42613;47.424;8.560;2022-07-22T11:31:14;5.90;;;5.30;;
56730;SDS011;42613;47.424;8.560;2022-07-22T11:33:42;6.72;;;6.13;;
56730;SDS011;42613;47.424;8.560;2022-07-22T11:36:08;5.72;;;5.15;;
56730;SDS011;42613;47.424;8.560;2022-07-22T11:38:47;9.00;;;7.25;;
56730;SDS011;42613;47.424;8.560;2022-07-22T11:41:15;8.32;;;5.45;;
56730;SDS011;42613;47.424;8.560;2022-07-22T11:43:43;6.88;;;6.18;;
56730;SDS011;42613;47.424;8.560;2022-07-22T11:46:12;6.07;;;5.28;;
56730;SDS011;42613;47.424;8.560;2022-07-22T11:48:39;8.15;;;5.78;;
56730;SDS011;42613;47.424;8.560;2022-07-22T11:51:07;9.43;;;6.47;;
56730;SDS011;42613;47.424;8.560;2022-07-22T11:53:34;8.43;;;6.88;;
56730;SDS011;42613;47.424;8.560;2022-07-22T11:56:00;10.30;;;6.97;;
56730;SDS011;42613;47.424;8.560;2022-07-22T11:58:34;10.18;;;6.00;;
56730;SDS011;42613;47.424;8.560;2022-07-22T12:01:11;5.10;;;4.60;;
56730;SDS011;42613;47.424;8.560;2022-07-22T12:03:40;6.47;;;5.50;;
56730;SDS011;42613;47.424;8.560;2022-07-22T12:06:12;6.15;;;4.50;;
56730;SDS011;42613;47.424;8.560;2022-07-22T12:08:39;7.63;;;5.90;;
56730;SDS011;42613;47.424;8.560;2022-07-22T12:11:10;13.45;;;7.10;;
56730;SDS011;42613;47.424;8.560;2022-07-22T12:13:40;9.10;;;6.03;;
56730;SDS011;42613;47.424;8.560;2022-07-22T12:16:18;8.13;;;6.35;;
56730;SDS011;42613;47.424;8.560;2022-07-22T12:19:02;9.10;;;5.80;;
56730;SDS011;42613;47.424;8.560;2022-07-22T12:21:31;5.13;;;4.55;;
56730;SDS011;42613;47.424;8.560;2022-07-22T12:24:03;6.05;;;4.63;;
56730;SDS011;42613;47.424;8.560;2022-07-22T12:26:42;5.15;;;4.65;;
56730;SDS011;42613;47.424;8.560;2022-07-22T12:29:19;10.35;;;6.78;;
56730;SDS011;42613;47.424;8.560;2022-07-22T12:31:47;6.90;;;5.43;;
56730;SDS011;42613;47.424;8.560;2022-07-22T12:34:14;6.53;;;4.88;;
56730;SDS011;42613;47.424;8.560;2022-07-22T12:36:44;6.82;;;4.40;;
56730;SDS011;42613;47.424;8.560;2022-07-22T12:39:15;7.18;;;4.75;;
56730;SDS011;42613;47.424;8.560;2022-07-22T12:44:24;6.50;;;4.90;;
56730;SDS011;42613;47.424;8.560;2022-07-22T12:49:19;5.35;;;4.85;;
56730;SDS011;42613;47.424;8.560;2022-07-22T12:52:05;4.45;;;3.92;;
56730;SDS011;42613;47.424;8.560;2022-07-22T12:54:31;4.80;;;4.03;;
56730;SDS011;42613;47.424;8.560;2022-07-22T12:56:57;6.03;;;4.90;;
56730;SDS011;42613;47.424;8.560;2022-07-22T12:59:25;9.95;;;6.63;;
56730;SDS011;42613;47.424;8.560;2022-07-22T13:01:51;7.50;;;6.03;;
56730;SDS011;42613;47.424;8.560;2022-07-22T13:04:16;5.32;;;4.25;;
56730;SDS011;42613;47.424;8.560;2022-07-22T13:06:41;4.93;;;4.47;;
56730;SDS011;42613;47.424;8.560;2022-07-22T13:09:07;5.50;;;4.47;;
56730;SDS011;42613;47.424;8.560;2022-07-22T13:11:32;6.40;;;4.05;;
56730;SDS011;42613;47.424;8.560;2022-07-22T13:14:04;10.90;;;6.47;;
56730;SDS011;42613;47.424;8.560;2022-07-22T13:16:29;6.78;;;4.97;;
56730;SDS011;42613;47.424;8.560;2022-07-22T13:18:54;6.72;;;5.90;;
56730;SDS011;42613;47.424;8.560;2022-07-22T13:21:20;6.70;;;5.45;;
56730;SDS011;42613;47.424;8.560;2022-07-22T13:23:45;6.82;;;6.10;;
56730;SDS011;42613;47.424;8.560;2022-07-22T13:26:11;5.68;;;5.10;;
56730;SDS011;42613;47.424;8.560;2022-07-22T13:28:36;8.98;;;5.75;;
56730;SDS011;42613;47.424;8.560;2022-07-22T13:31:01;4.80;;;4.25;;
56730;SDS011;42613;47.424;8.560;2022-07-22T13:33:27;5.07;;;4.53;;
56730;SDS011;42613;47.424;8.560;2022-07-22T13:35:52;8.07;;;4.35;;
56730;SDS011;42613;47.424;8.560;2022-07-22T13:38:17;5.70;;;4.33;;
56730;SDS011;42613;47.424;8.560;2022-07-22T13:40:43;5.82;;;4.80;;
56730;SDS011;42613;47.424;8.560;2022-07-22T13:43:16;5.18;;;4.10;;
56730;SDS011;42613;47.424;8.560;2022-07-22T13:45:41;6.25;;;5.65;;
56730;SDS011;42613;47.424;8.560;2022-07-22T13:48:07;5.15;;;4.30;;
56730;SDS011;42613;47.424;8.560;2022-07-22T13:50:32;7.10;;;6.07;;
56730;SDS011;42613;47.424;8.560;2022-07-22T13:52:57;8.23;;;4.50;;
56730;SDS011;42613;47.424;8.560;2022-07-22T13:55:22;9.52;;;4.93;;
56730;SDS011;42613;47.424;8.560;2022-07-22T13:57:48;9.88;;;5.30;;
56730;SDS011;42613;47.424;8.560;2022-07-22T14:00:14;7.53;;;5.05;;
56730;SDS011;42613;47.424;8.560;2022-07-22T14:02:39;7.03;;;5.55;;
56730;SDS011;42613;47.424;8.560;2022-07-22T14:05:05;4.82;;;4.28;;
56730;SDS011;42613;47.424;8.560;2022-07-22T14:07:31;6.05;;;5.45;;
56730;SDS011;42613;47.424;8.560;2022-07-22T14:09:56;6.13;;;5.45;;
56730;SDS011;42613;47.424;8.560;2022-07-22T14:12:21;10.27;;;5.40;;
56730;SDS011;42613;47.424;8.560;2022-07-22T14:14:47;9.48;;;5.60;;
56730;SDS011;42613;47.424;8.560;2022-07-22T14:17:12;6.10;;;5.45;;
56730;SDS011;42613;47.424;8.560;2022-07-22T14:19:37;6.78;;;6.10;;
56730;SDS011;42613;47.424;8.560;2022-07-22T14:22:03;10.20;;;6.22;;
56730;SDS011;42613;47.424;8.560;2022-07-22T14:24:28;8.75;;;6.57;;
56730;SDS011;42613;47.424;8.560;2022-07-22T14:26:53;7.38;;;5.78;;
56730;SDS011;42613;47.424;8.560;2022-07-22T14:29:19;7.65;;;5.28;;
56730;SDS011;42613;47.424;8.560;2022-07-22T14:31:46;8.50;;;4.85;;
56730;SDS011;42613;47.424;8.560;2022-07-22T14:34:11;7.13;;;5.97;;
56730;SDS011;42613;47.424;8.560;2022-07-22T14:36:37;7.40;;;4.88;;
56730;SDS011;42613;47.424;8.560;2022-07-22T14:39:02;4.43;;;3.90;;
56730;SDS011;42613;47.424;8.560;2022-07-22T14:41:27;6.15;;;4.68;;
56730;SDS011;42613;47.424;8.560;2022-07-22T14:43:53;8.23;;;5.55;;
56730;SDS011;42613;47.424;8.560;2022-07-22T14:46:18;6.30;;;5.25;;
56730;SDS011;42613;47.424;8.560;2022-07-22T14:48:44;5.83;;;4.53;;
56730;SDS011;42613;47.424;8.560;2022-07-22T14:51:17;5.28;;;4.50;;
56730;SDS011;42613;47.424;8.560;2022-07-22T14:53:42;4.38;;;3.97;;
56730;SDS011;42613;47.424;8.560;2022-07-22T14:56:08;8.83;;;4.73;;
56730;SDS011;42613;47.424;8.560;2022-07-22T14:58:33;5.38;;;4.43;;
56730;SDS011;42613;47.424;8.560;2022-07-22T15:00:59;5.35;;;4.57;;
56730;SDS011;42613;47.424;8.560;2022-07-22T15:03:24;5.60;;;5.07;;
56730;SDS011;42613;47.424;8.560;2022-07-22T15:05:50;7.30;;;4.88;;
56730;SDS011;42613;47.424;8.560;2022-07-22T15:08:15;4.70;;;4.30;;
56730;SDS011;42613;47.424;8.560;2022-07-22T15:10:40;4.20;;;3.80;;